Spar Draco — LAFO6 — position and weather

sailwx.info

Track history (hours):
 
Tides and Currents Weather Stations Pressure Air Temp Water Temp Dewpoint Dewpoint Depression Visibility Wind Speed Wind Dir Waves Ship Positions

Spar Draco

Last reported at 2018-Apr-18 09:30 UTC. Time now 2018-Apr-25 12:39 UTC.
Position N 10°04' W 016°38'.

Length 190 m; draft 12.6 m.

Type: Cargo ship. MMSI: 257799000.

Date/timePositionNaut miles runAvg speedWind from/ knotsBaromVisibWave heightAir tempDewpointWater temp
2018-Apr-18 09:30N 10°04' W 016°38'3611.3
2018-Apr-18 06:17N 09°33' W 016°19'612.0
2018-Apr-18 05:49N 09°28' W 016°16'712.1
2018-Apr-18 05:14N 09°22' W 016°12'412.0
2018-Apr-18 04:53N 09°19' W 016°10'911.8
2018-Apr-18 04:05N 09°11' W 016°05'111.6
2018-Apr-18 03:59N 09°10' W 016°04'611.5
2018-Apr-18 03:26N 09°05' W 016°00'511.5
2018-Apr-18 03:00N 09°01' W 015°57'611.7
2018-Apr-18 02:30N 08°56' W 015°53'611.7
2018-Apr-18 02:00N 08°52' W 015°49'611.7
2018-Apr-18 01:30N 08°48' W 015°45'611.7
2018-Apr-18 00:58N 08°43' W 015°41'912.0
2018-Apr-18 00:11N 08°37' W 015°34'712.1
2018-Apr-17 23:37N 08°33' W 015°28'112.3
2018-Apr-17 23:30N 08°32' W 015°27'612.3
2018-Apr-17 23:00N 08°28' W 015°23'612.2
2018-Apr-17 22:29N 08°24' W 015°18'612.2
2018-Apr-17 21:58N 08°20' W 015°12'1012.1
2018-Apr-17 21:08N 08°14' W 015°04'212.3
2018-Apr-17 21:00N 08°13' W 015°03'812.4
2018-Apr-17 20:22N 08°09' W 014°57'712.2
2018-Apr-17 19:48N 08°04' W 014°51'312.2
2018-Apr-17 19:30N 08°02' W 014°48'1612.0
2018-Apr-17 18:13N 07°52' W 014°36'211.7
2018-Apr-17 18:00N 07°51' W 014°34'1012.0
2018-Apr-17 17:09N 07°45' W 014°26'212.2
2018-Apr-17 17:00N 07°44' W 014°24'612.2
2018-Apr-17 16:31N 07°40' W 014°19'1012.1
2018-Apr-17 15:42N 07°35' W 014°11'212.1
2018-Apr-17 15:30N 07°34' W 014°09'611.9
2018-Apr-17 15:00N 07°32' W 014°03'611.7
2018-Apr-17 14:30N 07°30' W 013°58'611.4
2018-Apr-17 14:00N 07°27' W 013°52'611.6
2018-Apr-17 13:30N 07°25' W 013°47'611.6
2018-Apr-17 13:00N 07°23' W 013°42'611.3
2018-Apr-17 12:30N 07°21' W 013°36'611.3
2018-Apr-17 12:00N 07°19' W 013°31'611.0
2018-Apr-17 11:30N 07°16' W 013°26'510.7
2018-Apr-17 11:00N 07°14' W 013°21'3711.5
2018-Apr-17 07:46N 06°59' W 012°47'  
Track history (hours):
 
Tides and Currents Weather Stations Pressure Air Temp Water Temp Dewpoint Dewpoint Depression Visibility Wind Speed Wind Dir Waves Ship Positions

Spar Draco

Last reported at 2018-Apr-18 09:30 UTC. Time now 2018-Apr-25 12:39 UTC.
Position N 10°04' W 016°38'.

Length 190 m; draft 12.6 m.

Type: Cargo ship. MMSI: 257799000.

Date/timePositionNaut miles runAvg speedWind from/ knotsBaromVisibWave heightAir tempDewpointWater temp
2018-Apr-18 09:30N 10°04' W 016°38'3611.3
2018-Apr-18 06:17N 09°33' W 016°19'612.0
2018-Apr-18 05:49N 09°28' W 016°16'712.1
2018-Apr-18 05:14N 09°22' W 016°12'412.0
2018-Apr-18 04:53N 09°19' W 016°10'911.8
2018-Apr-18 04:05N 09°11' W 016°05'111.6
2018-Apr-18 03:59N 09°10' W 016°04'611.5
2018-Apr-18 03:26N 09°05' W 016°00'511.5
2018-Apr-18 03:00N 09°01' W 015°57'611.7
2018-Apr-18 02:30N 08°56' W 015°53'611.7
2018-Apr-18 02:00N 08°52' W 015°49'611.7
2018-Apr-18 01:30N 08°48' W 015°45'611.7
2018-Apr-18 00:58N 08°43' W 015°41'912.0
2018-Apr-18 00:11N 08°37' W 015°34'712.1
2018-Apr-17 23:37N 08°33' W 015°28'112.3
2018-Apr-17 23:30N 08°32' W 015°27'612.3
2018-Apr-17 23:00N 08°28' W 015°23'612.2
2018-Apr-17 22:29N 08°24' W 015°18'612.2
2018-Apr-17 21:58N 08°20' W 015°12'1012.1
2018-Apr-17 21:08N 08°14' W 015°04'212.3
2018-Apr-17 21:00N 08°13' W 015°03'812.4
2018-Apr-17 20:22N 08°09' W 014°57'712.2
2018-Apr-17 19:48N 08°04' W 014°51'312.2
2018-Apr-17 19:30N 08°02' W 014°48'1612.0
2018-Apr-17 18:13N 07°52' W 014°36'211.7
2018-Apr-17 18:00N 07°51' W 014°34'1012.0
2018-Apr-17 17:09N 07°45' W 014°26'212.2
2018-Apr-17 17:00N 07°44' W 014°24'612.2
2018-Apr-17 16:31N 07°40' W 014°19'1012.1
2018-Apr-17 15:42N 07°35' W 014°11'212.1
2018-Apr-17 15:30N 07°34' W 014°09'611.9
2018-Apr-17 15:00N 07°32' W 014°03'611.7
2018-Apr-17 14:30N 07°30' W 013°58'611.4
2018-Apr-17 14:00N 07°27' W 013°52'611.6
2018-Apr-17 13:30N 07°25' W 013°47'611.6
2018-Apr-17 13:00N 07°23' W 013°42'611.3
2018-Apr-17 12:30N 07°21' W 013°36'611.3
2018-Apr-17 12:00N 07°19' W 013°31'611.0
2018-Apr-17 11:30N 07°16' W 013°26'510.7
2018-Apr-17 11:00N 07°14' W 013°21'3711.5
2018-Apr-17 07:46N 06°59' W 012°47'  

Dump ship's entire track history